Time;durP1;ratioP1;P1;durP2;ratioP2;P2;SDS_P1;SDS_P2;PMS_P1;PMS_P2;Temp;Humidity;BMP_temperature;BMP_pressure;BME280_temperature;BME280_humidity;BME280_pressure;Samples;Min_cycle;Max_cycle;Signal;HPM_P1;HPM_P2
2022/07/10 00:02:04;;;;;;;8.88;1.42;;;;;;;17.39;100.00;102692.66;4766205;29;20067;-61
2022/07/10 00:04:30;;;;;;;5.07;1.20;;;;;;;17.36;100.00;102693.75;4758739;30;20055;-62
2022/07/10 00:06:58;;;;;;;4.95;1.35;;;;;;;17.33;100.00;102696.72;4765254;29;20524;-63
2022/07/10 00:09:24;;;;;;;5.10;1.00;;;;;;;17.38;100.00;102696.28;4755410;30;20103;-62
2022/07/10 00:11:51;;;;;;;7.57;1.60;;;;;;;17.37;100.00;102695.44;4753426;30;20465;-62
2022/07/10 00:14:17;;;;;;;8.18;1.40;;;;;;;17.36;100.00;102699.06;4761023;29;20059;-64
2022/07/10 00:16:44;;;;;;;5.68;1.17;;;;;;;17.37;100.00;102699.91;4745339;30;20510;-61
2022/07/10 00:19:10;;;;;;;7.07;0.98;;;;;;;17.38;100.00;102696.28;4755032;30;20404;-63
2022/07/10 00:21:36;;;;;;;5.15;1.50;;;;;;;17.35;100.00;102691.28;4746785;30;20498;-62
2022/07/10 00:24:03;;;;;;;5.25;1.25;;;;;;;17.34;100.00;102697.53;4753060;30;20051;-61
2022/07/10 00:26:30;;;;;;;3.63;0.90;;;;;;;17.37;100.00;102692.78;4755817;30;20052;-62
2022/07/10 00:28:56;;;;;;;6.68;1.10;;;;;;;17.38;100.00;102694.44;4749824;29;20067;-62
2022/07/10 00:31:23;;;;;;;5.60;1.17;;;;;;;17.35;100.00;102692.09;4766814;30;20059;-62
2022/07/10 00:33:50;;;;;;;5.80;1.00;;;;;;;17.36;100.00;102693.75;4759458;29;20056;-63
2022/07/10 00:36:17;;;;;;;8.70;1.23;;;;;;;17.39;100.00;102697.94;4748572;30;20059;-62
2022/07/10 00:38:43;;;;;;;6.57;1.45;;;;;;;17.39;100.00;102692.66;4742658;29;20672;-62
2022/07/10 00:41:10;;;;;;;8.45;1.40;;;;;;;17.34;100.00;102686.94;4754914;30;20107;-63
2022/07/10 00:43:53;;;;;;;8.60;1.13;;;;;;;17.38;100.00;102690.97;4747406;30;20487;-63
2022/07/10 00:46:20;;;;;;;5.63;1.60;;;;;;;17.33;100.00;102685.28;4750106;30;20055;-62
2022/07/10 00:48:47;;;;;;;5.57;1.40;;;;;;;17.34;100.00;102677.16;4755740;30;20066;-63
2022/07/10 00:51:16;;;;;;;8.93;1.10;;;;;;;17.24;100.00;102672.88;4744515;30;20064;-63
2022/07/10 00:53:44;;;;;;;6.13;1.30;;;;;;;17.19;100.00;102674.16;4754749;30;20476;-63
2022/07/10 00:56:12;;;;;;;5.60;1.20;;;;;;;17.22;100.00;102669.53;4746417;29;20055;-63
2022/07/10 00:58:40;;;;;;;5.20;1.40;;;;;;;17.21;100.00;102671.38;4763382;30;20531;-64
2022/07/10 01:01:07;;;;;;;6.38;1.30;;;;;;;17.19;100.00;102666.19;4764958;29;20063;-63
2022/07/10 01:03:33;;;;;;;7.85;1.55;;;;;;;17.23;100.00;102674.72;4745188;29;20067;-63
2022/07/10 01:06:00;;;;;;;6.22;1.67;;;;;;;17.20;100.00;102665.19;4751994;30;20577;-63
2022/07/10 01:08:27;;;;;;;6.00;1.20;;;;;;;17.18;100.00;102669.00;4742686;30;20071;-63
2022/07/10 01:10:54;;;;;;;6.10;1.30;;;;;;;17.16;100.00;102663.81;4749141;30;20074;-63
2022/07/10 01:13:21;;;;;;;8.65;1.33;;;;;;;17.11;100.00;102662.59;4738837;30;20051;-63
2022/07/10 01:15:48;;;;;;;6.90;1.20;;;;;;;17.16;100.00;102661.19;4762138;30;20051;-62
2022/07/10 01:18:14;;;;;;;5.45;1.13;;;;;;;17.17;100.00;102662.84;4759320;29;20055;-63
2022/07/10 01:20:41;;;;;;;6.45;1.48;;;;;;;17.22;100.00;102658.94;4748102;29;20065;-64
2022/07/10 01:23:07;;;;;;;4.93;1.40;;;;;;;17.12;100.00;102656.31;4759828;29;20496;-62
2022/07/10 01:25:34;;;;;;;5.65;1.27;;;;;;;17.17;100.00;102664.66;4744360;30;20087;-63
2022/07/10 01:28:00;;;;;;;3.97;1.27;;;;;;;17.21;100.00;102652.81;4747805;30;20491;-64
2022/07/10 01:30:27;;;;;;;11.38;1.55;;;;;;;17.18;100.00;102653.09;4746413;30;20056;-63
2022/07/10 01:32:53;;;;;;;6.85;1.25;;;;;;;17.13;100.00;102647.38;4754002;30;20058;-63
2022/07/10 01:35:20;;;;;;;8.10;1.65;;;;;;;17.13;100.00;102647.38;4761417;30;20052;-62
2022/07/10 01:37:47;;;;;;;7.40;1.27;;;;;;;17.12;100.00;102651.00;4746665;30;20339;-63
2022/07/10 01:40:13;;;;;;;7.13;2.72;;;;;;;17.02;100.00;102644.91;4757767;30;20584;-62
2022/07/10 01:42:39;;;;;;;6.65;1.80;;;;;;;16.94;100.00;102642.97;4761382;29;20062;-64
2022/07/10 01:45:08;;;;;;;7.07;1.63;;;;;;;16.82;100.00;102650.25;4740763;30;20091;-64
2022/07/10 01:47:34;;;;;;;3.78;1.10;;;;;;;16.79;100.00;102645.22;4744786;30;20070;-63
2022/07/10 01:50:00;;;;;;;6.18;1.10;;;;;;;16.72;100.00;102638.78;4756265;30;20505;-63
2022/07/10 01:52:27;;;;;;;3.75;1.30;;;;;;;16.68;100.00;102630.31;4757608;30;20144;-63
2022/07/10 01:54:53;;;;;;;8.32;1.45;;;;;;;16.66;100.00;102644.66;4757225;30;20049;-63
2022/07/10 01:57:20;;;;;;;5.05;1.42;;;;;;;16.61;100.00;102629.22;4763509;29;20063;-63
2022/07/10 01:59:46;;;;;;;7.70;1.33;;;;;;;16.63;100.00;102639.66;4739525;30;20064;-62
2022/07/10 02:02:13;;;;;;;3.88;1.40;;;;;;;16.65;100.00;102635.06;4747877;30;20091;-63
2022/07/10 02:04:42;;;;;;;4.75;1.27;;;;;;;16.60;100.00;102644.28;4758521;29;20048;-63
2022/07/10 02:07:14;;;;;;;6.57;1.40;;;;;;;16.67;100.00;102635.75;4749648;30;20055;-64
2022/07/10 02:09:41;;;;;;;5.60;1.50;;;;;;;16.61;100.00;102629.22;4746034;30;20056;-63
2022/07/10 02:12:10;;;;;;;11.27;1.63;;;;;;;16.66;100.00;102631.41;4740285;30;20067;-62
2022/07/10 02:14:37;;;;;;;6.88;1.48;;;;;;;16.66;100.00;102629.63;4753491;29;20056;-65
2022/07/10 02:17:04;;;;;;;5.20;1.08;;;;;;;16.59;100.00;102628.53;4740747;30;20059;-64
2022/07/10 02:19:31;;;;;;;2.55;1.23;;;;;;;16.62;100.00;102633.50;4756375;30;20510;-63
2022/07/10 02:21:59;;;;;;;5.63;1.25;;;;;;;16.52;100.00;102630.88;4741840;30;20056;-64
2022/07/10 02:24:26;;;;;;;2.97;1.13;;;;;;;16.51;100.00;102623.94;4748868;30;20054;-63
2022/07/10 02:26:54;;;;;;;4.90;1.20;;;;;;;16.55;100.00;102621.84;4760644;30;20067;-63
2022/07/10 02:29:23;;;;;;;9.73;3.25;;;;;;;16.54;100.00;102626.31;4740975;30;20506;-63
2022/07/10 02:31:49;;;;;;;5.57;1.30;;;;;;;16.59;100.00;102620.56;4759761;30;20083;-63
2022/07/10 02:34:16;;;;;;;8.90;1.30;;;;;;;16.54;100.00;102614.84;4740946;30;20529;-63
2022/07/10 02:36:42;;;;;;;3.78;1.30;;;;;;;16.44;100.00;102604.28;4758701;30;20055;-63
2022/07/10 02:39:09;;;;;;;6.32;1.30;;;;;;;16.47;100.00;102605.81;4750397;29;20059;-63
2022/07/10 02:41:35;;;;;;;6.13;1.58;;;;;;;16.51;100.00;102599.25;4752989;30;20091;-64
2022/07/10 02:44:02;;;;;;;8.80;1.60;;;;;;;16.52;100.00;102599.09;4759401;30;20809;-63
2022/07/10 02:46:29;;;;;;;4.38;1.08;;;;;;;16.55;100.00;102592.69;4741309;30;20056;-62
2022/07/10 02:48:56;;;;;;;5.90;1.30;;;;;;;16.52;100.00;102588.50;4758257;30;20059;-62
2022/07/10 02:51:22;;;;;;;5.55;1.35;;;;;;;16.46;100.00;102593.53;4745532;30;20059;-62
2022/07/10 02:53:49;;;;;;;6.93;1.60;;;;;;;16.43;100.00;102589.38;4757351;30;20052;-64
2022/07/10 02:56:15;;;;;;;8.63;1.52;;;;;;;16.48;100.00;102599.53;4754466;30;20060;-63
2022/07/10 02:58:42;;;;;;;5.30;1.30;;;;;;;16.45;100.00;102599.84;4748500;29;20052;-62
2022/07/10 03:01:08;;;;;;;7.50;1.42;;;;;;;16.43;100.00;102599.97;4759796;30;20055;-63
2022/07/10 03:03:35;;;;;;;4.78;1.30;;;;;;;16.35;100.00;102598.03;4746748;30;20147;-63
2022/07/10 03:06:02;;;;;;;6.25;1.60;;;;;;;16.28;100.00;102610.16;4743908;30;20060;-63
2022/07/10 03:08:29;;;;;;;5.38;1.50;;;;;;;16.26;100.00;102606.81;4734654;30;20296;-63
2022/07/10 03:10:55;;;;;;;5.63;1.25;;;;;;;16.20;100.00;102610.00;4749918;30;20516;-62
2022/07/10 03:13:21;;;;;;;4.00;1.42;;;;;;;16.24;100.00;102615.88;4760998;30;20055;-62
2022/07/10 03:15:48;;;;;;;7.18;1.58;;;;;;;16.20;100.00;102621.44;4745795;29;20056;-64
2022/07/10 03:18:14;;;;;;;4.85;1.40;;;;;;;16.13;100.00;102614.19;4763750;30;20588;-63
2022/07/10 03:20:41;;;;;;;7.00;1.65;;;;;;;16.10;100.00;102617.94;4741401;30;20060;-62
2022/07/10 03:23:07;;;;;;;7.50;1.50;;;;;;;16.04;100.00;102615.88;4754376;30;20361;-64
2022/07/10 03:25:33;;;;;;;5.82;1.40;;;;;;;16.06;100.00;102616.56;4750054;29;20063;-63
2022/07/10 03:28:00;;;;;;;5.90;1.65;;;;;;;16.15;100.00;102614.88;4761782;29;20060;-62
2022/07/10 03:30:26;;;;;;;5.15;1.52;;;;;;;16.11;100.00;102617.00;4754235;30;20068;-63
2022/07/10 03:32:53;;;;;;;7.35;1.77;;;;;;;16.18;100.00;102618.09;4744016;30;20445;-62
2022/07/10 03:35:19;;;;;;;7.93;1.55;;;;;;;16.17;100.00;102612.94;4760276;30;20067;-63
2022/07/10 03:37:45;;;;;;;9.70;1.90;;;;;;;16.20;100.00;102607.38;4740591;30;20055;-63
2022/07/10 03:40:12;;;;;;;8.27;1.65;;;;;;;16.19;100.00;102606.53;4764009;30;20074;-63
2022/07/10 03:42:38;;;;;;;7.88;1.70;;;;;;;16.20;100.00;102610.84;4750886;30;20071;-63
2022/07/10 03:45:05;;;;;;;7.85;1.27;;;;;;;16.22;100.00;102605.41;4754661;29;20425;-63
2022/07/10 03:47:32;;;;;;;6.25;1.42;;;;;;;16.20;100.00;102605.53;4761066;30;20062;-63
2022/07/10 03:49:58;;;;;;;5.00;1.50;;;;;;;16.27;100.00;102605.84;4742255;30;20060;-62
2022/07/10 03:52:24;;;;;;;5.85;1.50;;;;;;;16.30;100.00;102600.25;4750199;30;20056;-63
2022/07/10 03:54:53;;;;;;;5.93;1.45;;;;;;;16.29;100.00;102598.59;4747940;30;20070;-64
2022/07/10 04:00:05;;;;;;;8.65;1.30;;;;;;;16.35;100.00;102607.78;4752893;30;20576;-62
2022/07/10 04:02:31;;;;;;;10.23;1.55;;;;;;;16.26;100.00;102600.69;4740091;30;20631;-62
2022/07/10 04:04:58;;;;;;;8.60;1.25;;;;;;;16.33;100.00;102602.63;4755843;30;20776;-62
2022/07/10 04:07:25;;;;;;;10.80;1.30;;;;;;;16.29;100.00;102603.88;4742135;30;20151;-62
2022/07/10 04:09:51;;;;;;;6.25;1.45;;;;;;;16.28;100.00;102604.84;4766433;30;20450;-62
2022/07/10 04:12:18;;;;;;;5.93;1.42;;;;;;;16.36;100.00;102604.16;4741787;30;20185;-62
2022/07/10 04:14:44;;;;;;;3.33;1.00;;;;;;;16.30;100.00;102587.00;4748049;30;20056;-62
2022/07/10 04:17:11;;;;;;;5.53;1.27;;;;;;;16.31;100.00;102591.34;4742726;30;20066;-62
2022/07/10 04:19:37;;;;;;;6.55;1.02;;;;;;;16.39;100.00;102585.34;4751072;29;20064;-62
2022/07/10 04:22:04;;;;;;;7.50;1.42;;;;;;;16.29;100.00;102582.69;4756534;30;20436;-62
2022/07/10 04:24:31;;;;;;;6.47;1.30;;;;;;;16.38;100.00;102603.00;4745054;29;20055;-62
2022/07/10 04:26:57;;;;;;;5.95;1.30;;;;;;;16.34;100.00;102592.84;4752358;30;20056;-61
2022/07/10 04:29:23;;;;;;;4.65;1.20;;;;;;;16.31;100.00;102591.34;4747933;30;20463;-62
2022/07/10 04:31:50;;;;;;;7.70;1.50;;;;;;;16.21;100.00;102595.81;4749639;30;20060;-63
2022/07/10 04:34:16;;;;;;;5.95;1.25;;;;;;;16.17;100.00;102589.97;4753351;30;20063;-63
2022/07/10 04:36:43;;;;;;;5.40;1.13;;;;;;;16.24;100.00;102597.34;4750461;30;20411;-63
2022/07/10 04:39:09;;;;;;;7.47;1.27;;;;;;;16.26;100.00;102596.22;4769114;29;20055;-64
2022/07/10 04:41:36;;;;;;;3.75;1.05;;;;;;;16.30;100.00;102592.31;4752340;30;20061;-63
2022/07/10 04:44:02;;;;;;;5.38;1.50;;;;;;;16.31;100.00;102588.69;4745965;30;20064;-62
2022/07/10 04:46:29;;;;;;;2.63;1.08;;;;;;;16.24;100.00;102595.50;4749921;30;20056;-63
2022/07/10 04:48:55;;;;;;;6.05;1.15;;;;;;;16.27;100.00;102586.44;4749320;30;20054;-61
2022/07/10 04:51:23;;;;;;;9.57;1.50;;;;;;;16.29;100.00;102588.00;4765918;30;20059;-63
2022/07/10 04:53:49;;;;;;;7.32;1.42;;;;;;;16.27;100.00;102584.66;4753174;30;20440;-62
2022/07/10 04:56:16;;;;;;;6.47;1.30;;;;;;;16.35;100.00;102598.03;4758744;30;20070;-62
2022/07/10 04:58:42;;;;;;;4.93;1.27;;;;;;;16.40;100.00;102589.63;4740300;30;20058;-63
2022/07/10 05:01:17;;;;;;;8.15;1.30;;;;;;;16.47;100.00;102588.09;4752110;30;20090;-62
2022/07/10 05:03:44;;;;;;;8.15;1.30;;;;;;;16.49;100.00;102587.97;4756173;30;20051;-63
2022/07/10 05:06:10;;;;;;;6.22;1.20;;;;;;;16.56;100.00;102592.56;4749876;30;20059;-62
2022/07/10 05:08:36;;;;;;;4.72;1.40;;;;;;;16.55;100.00;102592.69;4759680;30;20069;-63
2022/07/10 05:11:03;;;;;;;6.07;1.17;;;;;;;16.55;100.00;102590.03;4732878;30;20060;-63
2022/07/10 05:13:30;;;;;;;5.68;1.40;;;;;;;16.65;100.00;102595.31;4742813;30;20064;-62
2022/07/10 05:15:56;;;;;;;4.97;1.38;;;;;;;16.66;100.00;102589.88;4750698;30;20467;-62
2022/07/10 05:18:23;;;;;;;10.10;1.60;;;;;;;16.57;100.00;102593.38;4757792;30;20529;-62
2022/07/10 05:20:50;;;;;;;4.85;1.13;;;;;;;16.58;100.00;102592.41;4759184;30;20051;-63
2022/07/10 05:23:16;;;;;;;9.00;1.50;;;;;;;16.61;100.00;102592.94;4737118;30;20059;-63
2022/07/10 05:25:43;;;;;;;7.47;1.63;;;;;;;16.60;100.00;102596.59;4743065;30;20057;-63
2022/07/10 05:28:09;;;;;;;6.13;1.67;;;;;;;16.68;100.00;102601.19;4746093;30;20072;-63
2022/07/10 05:30:35;;;;;;;4.30;1.17;;;;;;;16.70;100.00;102599.22;4752525;30;20071;-61
2022/07/10 05:33:02;;;;;;;5.65;1.40;;;;;;;16.74;100.00;102603.25;4753006;30;20568;-62
2022/07/10 05:35:28;;;;;;;6.22;1.48;;;;;;;16.67;100.00;102602.16;4747164;30;20064;-63
2022/07/10 05:37:55;;;;;;;5.53;1.20;;;;;;;16.75;100.00;102604.91;4768131;30;20339;-64
2022/07/10 05:40:21;;;;;;;6.65;1.20;;;;;;;16.73;100.00;102590.97;4741048;30;20066;-63
2022/07/10 05:42:48;;;;;;;10.63;1.35;;;;;;;16.85;100.00;102601.44;4758467;30;20059;-63
2022/07/10 05:45:15;;;;;;;8.25;1.17;;;;;;;16.96;100.00;102596.78;4753618;29;20509;-61
2022/07/10 05:47:41;;;;;;;5.18;1.20;;;;;;;17.02;100.00;102605.16;4749660;30;20067;-63
2022/07/10 05:50:08;;;;;;;6.43;1.10;;;;;;;17.05;100.00;102597.72;4756301;30;20070;-62
2022/07/10 05:52:34;;;;;;;14.32;1.67;;;;;;;17.02;100.00;102597.19;4742435;30;20107;-63
2022/07/10 05:55:01;;;;;;;4.45;1.45;;;;;;;17.01;100.00;102604.28;4751054;30;20060;-63
2022/07/10 05:57:29;;;;;;;7.47;1.20;;;;;;;17.04;100.00;102598.72;4750795;30;20416;-63
2022/07/10 05:59:55;;;;;;;6.43;1.30;;;;;;;17.07;100.00;102594.94;4753962;29;20054;-62
2022/07/10 06:02:22;;;;;;;9.77;1.48;;;;;;;17.02;100.00;102597.19;4754685;30;20654;-63
2022/07/10 06:04:51;;;;;;;10.02;1.73;;;;;;;17.02;100.00;102605.97;4749319;30;20557;-62
2022/07/10 06:07:17;;;;;;;5.80;1.48;;;;;;;17.03;100.00;102604.97;4752564;30;20055;-62
2022/07/10 06:09:43;;;;;;;6.80;1.30;;;;;;;17.04;100.00;102613.78;4747002;29;20051;-61
2022/07/10 06:12:10;;;;;;;8.57;1.50;;;;;;;17.07;100.00;102609.03;4748564;30;20060;-61
2022/07/10 06:14:36;;;;;;;7.20;1.20;;;;;;;17.02;100.00;102610.44;4752511;30;20070;-63
2022/07/10 06:17:03;;;;;;;8.88;1.30;;;;;;;17.03;100.00;102607.63;4761808;30;20060;-64
2022/07/10 06:19:29;;;;;;;10.88;1.50;;;;;;;17.00;100.00;102614.06;4757666;30;20070;-61
2022/07/10 06:24:41;;;;;;;7.40;1.42;;;;;;;17.00;100.00;102610.59;4759060;30;20047;-62
2022/07/10 06:27:07;;;;;;;8.90;1.70;;;;;;;17.07;100.00;102621.44;4752221;29;20368;-63
2022/07/10 06:29:34;;;;;;;6.43;1.38;;;;;;;17.03;100.00;102612.94;4757649;30;20082;-65
2022/07/10 06:32:01;;;;;;;9.50;2.70;;;;;;;17.10;100.00;102615.84;4748063;30;20063;-62
2022/07/10 06:34:27;;;;;;;7.60;1.75;;;;;;;17.08;100.00;102626.59;4751200;30;20059;-63
2022/07/10 06:36:54;;;;;;;4.25;1.45;;;;;;;17.12;100.00;102627.16;4752068;30;20052;-63
2022/07/10 06:39:20;;;;;;;6.55;1.60;;;;;;;17.06;100.00;102625.09;4748244;30;20074;-63
2022/07/10 06:41:47;;;;;;;7.82;1.65;;;;;;;17.00;100.00;102624.66;4756226;30;20051;-64
2022/07/10 06:44:13;;;;;;;4.40;1.80;;;;;;;16.94;100.00;102627.06;4747888;30;20063;-65
2022/07/10 06:46:40;;;;;;;10.63;1.73;;;;;;;17.01;100.00;102628.16;4758085;30;20056;-62
2022/07/10 06:49:08;;;;;;;6.38;1.88;;;;;;;17.00;100.00;102624.66;4742435;30;20063;-63
2022/07/10 06:51:35;;;;;;;5.82;1.38;;;;;;;17.05;100.00;102621.56;4750447;30;20055;-63
2022/07/10 06:54:02;;;;;;;12.32;1.98;;;;;;;17.10;100.00;102626.47;4751404;30;20092;-62
2022/07/10 06:56:28;;;;;;;7.85;1.70;;;;;;;17.10;100.00;102629.13;4754006;29;20427;-64
2022/07/10 06:58:55;;;;;;;7.68;1.63;;;;;;;17.04;100.00;102630.53;4761133;29;20486;-61
2022/07/10 07:01:21;;;;;;;13.05;2.33;;;;;;;17.08;100.00;102633.72;4744167;30;20364;-63
2022/07/10 07:03:48;;;;;;;10.20;2.53;;;;;;;17.03;100.00;102622.72;4740192;30;20072;-62
2022/07/10 07:06:14;;;;;;;7.18;1.75;;;;;;;16.97;100.00;102630.28;4743846;30;20048;-61
2022/07/10 07:08:42;;;;;;;8.48;1.92;;;;;;;16.96;100.00;102630.41;4760445;29;20052;-63
2022/07/10 07:11:09;;;;;;;8.05;2.10;;;;;;;16.88;100.00;102635.63;4764911;30;20064;-61
2022/07/10 07:13:35;;;;;;;11.15;2.45;;;;;;;16.83;100.00;102621.94;4746068;29;20077;-63
2022/07/10 07:16:06;;;;;;;8.40;2.50;;;;;;;16.82;100.00;102629.06;4753489;30;20615;-63
2022/07/10 07:18:34;;;;;;;9.40;1.98;;;;;;;16.78;100.00;102627.66;4738266;30;20070;-63
2022/07/10 07:23:47;;;;;;;10.05;2.50;;;;;;;16.85;100.00;102627.94;4745354;30;20067;-62
2022/07/10 07:26:13;;;;;;;8.43;1.80;;;;;;;16.97;100.00;102632.06;4751389;30;20066;-64
2022/07/10 07:28:40;;;;;;;4.78;1.98;;;;;;;16.96;100.00;102631.25;4755485;30;20059;-63
2022/07/10 07:31:07;;;;;;;9.65;1.85;;;;;;;16.96;100.00;102633.06;4753835;30;20160;-63
2022/07/10 07:33:40;;;;;;;4.25;2.08;;;;;;;16.99;100.00;102641.56;4773278;29;20063;-61
2022/07/10 07:36:07;;;;;;;5.30;1.77;;;;;;;16.96;100.00;102638.38;4758015;29;20059;-63
2022/07/10 07:38:33;;;;;;;9.88;2.20;;;;;;;16.97;100.00;102634.72;4755569;30;20063;-62
2022/07/10 07:41:00;;;;;;;10.32;1.90;;;;;;;17.01;100.00;102630.81;4751942;30;20055;-63
2022/07/10 07:43:27;;;;;;;6.70;2.03;;;;;;;17.02;100.00;102640.44;4756177;30;20059;-64
2022/07/10 07:45:53;;;;;;;8.20;2.00;;;;;;;17.05;100.00;102639.31;4766965;29;20057;-64
2022/07/10 07:48:20;;;;;;;11.73;2.38;;;;;;;17.06;100.00;102641.81;4748468;30;20305;-63
2022/07/10 07:50:46;;;;;;;9.55;2.00;;;;;;;17.10;100.00;102642.38;4759943;30;20056;-65
2022/07/10 07:53:13;;;;;;;8.68;2.28;;;;;;;17.20;100.00;102636.03;4750871;30;20059;-64
2022/07/10 07:55:39;;;;;;;9.43;2.40;;;;;;;17.22;100.00;102630.59;4768584;30;20055;-61
2022/07/10 07:58:06;;;;;;;7.68;2.15;;;;;;;17.14;100.00;102628.66;4752024;30;20067;-63
2022/07/10 08:00:33;;;;;;;7.68;2.00;;;;;;;17.33;100.00;102635.72;4739840;30;20056;-63
2022/07/10 08:03:00;;;;;;;11.20;2.50;;;;;;;17.33;100.00;102627.75;4756091;30;20060;-63
2022/07/10 08:05:28;;;;;;;9.52;2.17;;;;;;;17.48;100.00;102628.09;4741623;30;20068;-62
2022/07/10 08:07:58;;;;;;;11.25;2.25;;;;;;;17.48;100.00;102629.91;4762838;30;20055;-63
2022/07/10 08:10:26;;;;;;;10.85;2.35;;;;;;;17.39;100.00;102632.47;4767115;29;20065;-62
2022/07/10 08:12:53;;;;;;;8.77;2.15;;;;;;;17.32;100.00;102630.53;4766566;29;20063;-66
2022/07/10 08:15:24;;;;;;;8.10;2.00;;;;;;;17.30;100.00;102628.03;4760067;30;20252;-63
2022/07/10 08:17:52;;;;;;;9.75;2.13;;;;;;;17.31;100.00;102626.25;4763731;29;20060;-62
2022/07/10 08:20:19;;;;;;;11.80;2.15;;;;;;;17.42;100.00;102630.50;4765912;30;20070;-63
2022/07/10 08:22:46;;;;;;;9.63;2.10;;;;;;;17.55;100.00;102628.34;4751012;30;20059;-63
2022/07/10 08:25:13;;;;;;;9.18;2.10;;;;;;;17.63;100.00;102627.59;4769469;29;20468;-63
2022/07/10 08:27:39;;;;;;;7.72;1.85;;;;;;;17.75;100.00;102626.41;4750576;29;20564;-62
2022/07/10 08:30:08;;;;;;;13.20;2.58;;;;;;;17.81;100.00;102627.63;4751628;30;20472;-63
2022/07/10 08:32:36;;;;;;;7.15;1.70;;;;;;;17.85;100.00;102632.50;4760540;30;20055;-62
2022/07/10 08:35:03;;;;;;;8.60;1.80;;;;;;;17.94;100.00;102631.59;4747657;29;20056;-62
2022/07/10 08:37:30;;;;;;;5.50;1.70;;;;;;;17.98;100.00;102630.31;4762668;30;20071;-64
2022/07/10 08:39:56;;;;;;;7.57;1.67;;;;;;;17.98;100.00;102626.84;4747939;29;20460;-61
2022/07/10 08:42:24;;;;;;;6.28;1.75;;;;;;;18.07;100.00;102625.94;4765361;30;20060;-62
2022/07/10 08:44:51;;;;;;;7.28;1.95;;;;;;;18.14;100.00;102620.84;4752600;29;20075;-61
2022/07/10 08:47:21;;;;;;;6.60;1.70;;;;;;;18.22;100.00;102617.41;4764582;30;20056;-63
2022/07/10 08:49:47;;;;;;;7.53;1.67;;;;;;;18.26;100.00;102624.09;4764852;30;20055;-63
2022/07/10 08:52:27;;;;;;;8.18;1.80;;;;;;;18.24;100.00;102623.41;4749678;30;20769;-63
2022/07/10 08:54:55;;;;;;;6.63;1.67;;;;;;;18.40;100.00;102625.34;4758779;30;20057;-63
2022/07/10 08:57:23;;;;;;;7.80;1.77;;;;;;;18.48;100.00;102620.94;4753781;29;20055;-63
2022/07/10 08:59:50;;;;;;;7.85;1.65;;;;;;;18.55;100.00;102621.97;4759602;30;20055;-63
2022/07/10 09:02:16;;;;;;;6.72;1.98;;;;;;;18.67;100.00;102622.56;4751247;29;20399;-63
2022/07/10 09:04:43;;;;;;;8.63;1.88;;;;;;;18.73;100.00;102623.75;4763617;29;20140;-63
2022/07/10 09:07:10;;;;;;;4.75;1.40;;;;;;;18.72;100.00;102620.28;4754325;30;20056;-63
2022/07/10 09:09:54;;;;;;;10.65;1.58;;;;;;;18.90;100.00;102612.28;4741655;30;20600;-61
2022/07/10 09:12:22;;;;;;;5.25;1.58;;;;;;;19.05;100.00;102615.19;4753487;30;20079;-62
2022/07/10 09:14:49;;;;;;;7.82;1.67;;;;;;;19.26;100.00;102605.94;4751150;29;20052;-63
2022/07/10 09:17:17;;;;;;;5.85;1.30;;;;;;;19.44;100.00;102605.84;4749188;29;20058;-63
2022/07/10 09:19:44;;;;;;;5.72;1.48;;;;;;;19.60;100.00;102605.03;4743696;30;20109;-63
2022/07/10 09:22:11;;;;;;;7.35;1.45;;;;;;;19.71;100.00;102594.94;4759749;30;20059;-63
2022/07/10 09:24:45;;;;;;;3.65;1.60;;;;;;;19.93;100.00;102596.16;4746701;29;20508;-63
2022/07/10 09:27:15;;;;;;;6.82;1.50;;;;;;;20.09;100.00;102598.00;4754722;30;20814;-62
2022/07/10 09:29:50;;;;;;;5.60;1.15;;;;;;;20.23;100.00;102591.16;4751500;30;20059;-63
2022/07/10 09:32:17;;;;;;;4.85;1.38;;;;;;;20.33;100.00;102591.81;4756732;30;20059;-63
2022/07/10 09:34:46;;;;;;;3.88;1.13;;;;;;;20.23;100.00;102585.00;4757360;29;20140;-64
2022/07/10 09:37:28;;;;;;;3.67;1.38;;;;;;;20.22;100.00;102591.34;4742915;30;20056;-62
2022/07/10 09:40:04;;;;;;;4.35;1.30;;;;;;;20.17;100.00;102589.19;4746850;30;20060;-63
2022/07/10 09:42:36;;;;;;;4.60;1.50;;;;;;;20.22;100.00;102586.00;4745412;30;20060;-61
2022/07/10 09:45:12;;;;;;;5.82;1.17;;;;;;;20.28;100.00;102582.66;4761113;30;20061;-63
2022/07/10 09:47:57;;;;;;;5.15;1.60;;;;;;;20.33;100.00;102577.69;4759390;30;20055;-63
2022/07/10 09:50:31;;;;;;;6.13;1.63;;;;;;;20.42;100.00;102584.63;4745276;30;20076;-63
2022/07/10 09:53:05;;;;;;;4.85;1.48;;;;;;;20.42;100.00;102581.16;4745670;30;20058;-63
2022/07/10 09:55:34;;;;;;;4.93;1.33;;;;;;;20.36;100.00;102577.31;4747618;30;20527;-63
2022/07/10 09:58:10;;;;;;;6.10;1.50;;;;;;;20.43;100.00;102580.97;4754899;30;20083;-62
2022/07/10 10:00:39;;;;;;;3.00;1.33;;;;;;;20.50;100.00;102578.47;4742782;30;20056;-63
2022/07/10 10:03:08;;;;;;;4.93;1.30;;;;;;;20.58;100.00;102577.63;4743110;30;20141;-62
2022/07/10 10:05:58;;;;;;;5.72;1.48;;;;;;;20.59;100.00;102576.63;4752291;30;20066;-64
2022/07/10 10:08:27;;;;;;;6.75;1.55;;;;;;;20.50;100.00;102578.47;4757838;29;20058;-62
2022/07/10 10:10:56;;;;;;;5.22;1.73;;;;;;;20.38;100.00;102569.16;4757102;29;20434;-62
2022/07/10 10:13:27;;;;;;;4.85;1.50;;;;;;;20.30;100.00;102580.66;4747442;29;20054;-63
2022/07/10 10:15:55;;;;;;;6.63;1.30;;;;;;;20.49;100.00;102574.16;4751391;30;20144;-63
2022/07/10 10:18:23;;;;;;;5.65;1.33;;;;;;;20.57;100.00;102568.78;4742450;30;20060;-61
2022/07/10 10:20:52;;;;;;;6.57;1.67;;;;;;;21.06;100.00;102575.84;4760291;30;20069;-63
2022/07/10 10:23:20;;;;;;;3.05;1.20;;;;;;;21.68;100.00;102564.34;4744365;30;20086;-63
2022/07/10 10:25:48;;;;;;;4.70;1.40;;;;;;;21.63;100.00;102551.50;4749266;29;20079;-64
2022/07/10 10:28:17;;;;;;;5.47;1.40;;;;;;;21.81;100.00;102571.75;4760290;30;20073;-63
2022/07/10 10:30:45;;;;;;;5.63;1.15;;;;;;;21.87;100.00;102563.00;4746493;29;20079;-63
2022/07/10 10:33:30;;;;;;;;;;;;;;;21.82;98.69;102563.56;4749012;30;20067;-62
2022/07/10 10:35:58;;;;;;;7.72;1.45;;;;;;;21.52;98.79;102555.44;4757646;30;19929;-62
2022/07/10 10:38:27;;;;;;;4.05;1.30;;;;;;;21.48;99.95;102554.13;4759578;29;20055;-63
2022/07/10 10:40:53;;;;;;;3.42;1.10;;;;;;;21.50;100.00;102556.59;4746853;30;20140;-63
2022/07/10 10:43:22;;;;;;;4.65;1.10;;;;;;;21.38;100.00;102561.47;4756933;30;20510;-62
2022/07/10 10:45:54;;;;;;;5.13;1.30;;;;;;;21.41;100.00;102550.47;4745401;30;20509;-61
2022/07/10 10:48:21;;;;;;;6.85;1.38;;;;;;;21.29;100.00;102557.22;4739373;30;20056;-61
2022/07/10 10:51:04;;;;;;;6.05;1.75;;;;;;;21.35;100.00;102564.50;4748349;30;20083;-64
2022/07/10 10:53:31;;;;;;;6.00;1.42;;;;;;;21.32;100.00;102563.00;4755512;30;20063;-61
2022/07/10 10:56:04;;;;;;;4.80;1.30;;;;;;;21.37;100.00;102565.19;4758167;29;20494;-63
2022/07/10 10:58:41;;;;;;;5.55;1.45;;;;;;;21.33;100.00;102555.84;4737510;30;20162;-63
2022/07/10 11:01:21;;;;;;;5.10;1.10;;;;;;;21.30;100.00;102558.88;4748727;30;20052;-62
2022/07/10 11:04:09;;;;;;;3.65;1.30;;;;;;;21.25;100.00;102563.91;4748722;30;20457;-62
2022/07/10 11:06:45;;;;;;;3.33;1.25;;;;;;;21.26;100.00;102558.38;4760865;29;20059;-63
2022/07/10 11:09:24;;;;;;;3.45;1.25;;;;;;;21.40;100.00;102555.97;4763415;29;20063;-62
2022/07/10 11:12:01;;;;;;;5.13;1.23;;;;;;;21.61;100.00;102547.38;4753423;30;20102;-63
2022/07/10 11:14:29;;;;;;;3.83;1.17;;;;;;;21.82;100.00;102542.19;4746157;30;20066;-61
2022/07/10 11:16:56;;;;;;;3.03;1.10;;;;;;;21.91;100.00;102537.59;4751578;29;20585;-62
2022/07/10 11:19:24;;;;;;;4.33;1.10;;;;;;;22.04;99.17;102534.31;4768864;29;20052;-63
2022/07/10 11:22:01;;;;;;;3.88;1.35;;;;;;;22.25;99.84;102539.00;4753004;30;20065;-63
2022/07/10 11:24:41;;;;;;;2.25;1.10;;;;;;;22.46;100.00;102541.81;4751883;30;20060;-64
2022/07/10 11:27:34;;;;;;;3.60;1.30;;;;;;;22.54;98.28;102546.19;4734086;30;20066;-62
2022/07/10 11:30:01;;;;;;;3.45;1.13;;;;;;;22.44;97.58;102541.16;4750876;30;20059;-65